createdAt,value
2023-12-04T00:00:32.476Z,100475.11
2023-12-04T00:03:01.646Z,100479.14
2023-12-04T00:05:32.606Z,100481.19
2023-12-04T00:08:00.743Z,100484.48
2023-12-04T00:10:30.137Z,100494.31
2023-12-04T00:13:03.203Z,100498.06
2023-12-04T00:15:32.054Z,100503.14
2023-12-04T00:18:00.380Z,100507.73
2023-12-04T00:20:28.762Z,100510.84
2023-12-04T00:23:03.210Z,100516.56
2023-12-04T00:25:32.489Z,100519.05
2023-12-04T00:28:01.024Z,100523.48
2023-12-04T00:30:29.665Z,100523.59
2023-12-04T00:32:58.990Z,100530.79
2023-12-04T00:35:28.972Z,100530.43
2023-12-04T00:37:57.449Z,100529.16
2023-12-04T00:40:27.052Z,100530.70
2023-12-04T00:47:53.610Z,100542.76
2023-12-04T00:59:28.879Z,100549.35
2023-12-04T01:21:37.971Z,100559.70
2023-12-04T01:43:52.360Z,100597.17
2023-12-04T01:47:23.670Z,100604.09
2023-12-04T02:06:50.123Z,100621.59
2023-12-04T02:15:48.192Z,100633.55
2023-12-04T02:18:42.655Z,100638.32
2023-12-04T02:21:10.829Z,100636.34
2023-12-04T03:13:17.901Z,100686.92
2023-12-04T03:15:50.627Z,100687.42
2023-12-04T03:18:39.303Z,100695.07
2023-12-04T03:21:08.851Z,100698.37
2023-12-04T03:23:36.926Z,100703.67
2023-12-04T03:26:05.447Z,100704.45
2023-12-04T03:28:35.547Z,100701.63
2023-12-04T03:31:05.883Z,100709.78
2023-12-04T03:36:44.510Z,100705.46
2023-12-04T03:39:12.039Z,100710.48
2023-12-04T03:41:39.507Z,100714.79
2023-12-04T03:44:11.911Z,100713.98
2023-12-04T03:46:41.174Z,100718.23
2023-12-04T03:49:10.637Z,100720.81
2023-12-04T03:51:39.024Z,100720.85
2023-12-04T03:54:07.248Z,100722.11
2023-12-04T03:56:37.966Z,100718.10
2023-12-04T03:59:06.776Z,100721.73
2023-12-04T04:02:09.042Z,100722.48
2023-12-04T04:04:38.948Z,100725.84
2023-12-04T04:07:07.973Z,100730.94
2023-12-04T04:09:36.751Z,100735.80
2023-12-04T04:12:08.030Z,100741.86
2023-12-04T04:14:38.098Z,100747.48
2023-12-04T04:17:09.949Z,100746.35
2023-12-04T04:19:38.449Z,100745.70
2023-12-04T04:22:07.147Z,100743.48
2023-12-04T04:24:35.813Z,100746.22
2023-12-04T04:27:06.087Z,100744.79
2023-12-04T04:29:35.412Z,100747.40
2023-12-04T04:32:03.896Z,100749.04
2023-12-04T04:34:32.784Z,100747.45
2023-12-04T04:37:04.175Z,100746.38
2023-12-04T04:39:32.348Z,100751.23
2023-12-04T04:42:00.362Z,100758.31
2023-12-04T04:44:29.195Z,100754.61
2023-12-04T04:46:57.105Z,100759.02
2023-12-04T04:49:25.547Z,100758.95
2023-12-04T04:51:53.947Z,100762.17
2023-12-04T04:54:22.042Z,100760.66
2023-12-04T04:56:49.955Z,100764.39
2023-12-04T04:59:18.327Z,100764.94
2023-12-04T05:01:46.783Z,100770.00
2023-12-04T05:04:14.898Z,100778.93
2023-12-04T05:06:43.685Z,100782.98
2023-12-04T05:09:12.354Z,100787.59
2023-12-04T05:11:41.021Z,100792.31
2023-12-04T05:14:09.651Z,100799.14
2023-12-04T05:16:38.412Z,100805.87
2023-12-04T05:19:08.628Z,100815.17
2023-12-04T05:21:38.300Z,100821.81
2023-12-04T05:24:09.472Z,100827.10
2023-12-04T05:26:38.154Z,100830.10
2023-12-04T05:29:06.858Z,100832.73
2023-12-04T05:31:35.549Z,100828.68
2023-12-04T05:34:05.324Z,100834.64
2023-12-04T05:36:36.428Z,100834.13
2023-12-04T05:39:06.337Z,100838.39
2023-12-04T05:41:35.026Z,100842.83
2023-12-04T05:44:05.974Z,100847.11
2023-12-04T05:46:34.533Z,100844.32
2023-12-04T05:49:04.706Z,100841.69
2023-12-04T05:51:35.350Z,100843.69
2023-12-04T05:54:08.133Z,100843.13
2023-12-04T05:56:36.574Z,100850.85
2023-12-04T05:59:05.966Z,100847.15
2023-12-04T06:01:34.439Z,100844.13
2023-12-04T06:04:04.380Z,100840.02
2023-12-04T06:06:36.170Z,100842.91
2023-12-04T06:09:04.707Z,100841.69
2023-12-04T06:11:33.314Z,100842.21
2023-12-04T06:14:01.890Z,100847.61
2023-12-04T06:16:31.208Z,100847.48
2023-12-04T06:19:01.149Z,100844.30
2023-12-04T06:21:29.568Z,100841.95
2023-12-04T06:23:58.635Z,100842.80
2023-12-04T06:26:27.472Z,100845.39
2023-12-04T06:28:56.452Z,100852.38
2023-12-04T06:31:25.489Z,100855.73
2023-12-04T06:33:54.286Z,100858.76
2023-12-04T06:36:23.035Z,100859.48
2023-12-04T06:38:51.809Z,100858.31
2023-12-04T06:41:26.119Z,100858.30
2023-12-04T06:43:55.258Z,100857.86
2023-12-04T06:46:23.595Z,100857.23
2023-12-04T06:48:53.175Z,100857.00
2023-12-04T06:51:21.811Z,100859.54
2023-12-04T06:53:50.784Z,100859.34
2023-12-04T06:56:21.064Z,100859.26
2023-12-04T06:58:51.089Z,100862.81
2023-12-04T07:01:19.556Z,100860.98
2023-12-04T07:03:48.490Z,100862.98
2023-12-04T07:06:18.643Z,100864.21
2023-12-04T07:08:47.624Z,100865.96
2023-12-04T07:11:17.101Z,100866.67
2023-12-04T07:13:45.706Z,100870.50
2023-12-04T07:16:15.328Z,100866.88
2023-12-04T07:18:44.067Z,100868.30
2023-12-04T07:21:13.311Z,100869.00
2023-12-04T07:23:42.297Z,100870.58
2023-12-04T07:26:10.746Z,100871.69
2023-12-04T07:28:40.880Z,100874.32
2023-12-04T07:31:14.787Z,100875.91
2023-12-04T07:33:44.279Z,100871.41
2023-12-04T07:36:15.450Z,100869.02
2023-12-04T07:38:43.756Z,100865.84
2023-12-04T07:41:13.210Z,100869.59
2023-12-04T07:43:41.493Z,100872.06
2023-12-04T07:46:12.630Z,100873.35
2023-12-04T07:48:45.616Z,100877.36
2023-12-04T07:51:15.156Z,100876.92
2023-12-04T07:53:43.414Z,100882.92
2023-12-04T07:56:13.736Z,100884.83
2023-12-04T07:58:42.233Z,100887.31
2023-12-04T08:01:10.785Z,100887.74
2023-12-04T08:03:39.327Z,100884.55
2023-12-04T08:06:08.383Z,100883.90
2023-12-04T08:08:36.843Z,100890.19
2023-12-04T08:11:05.422Z,100891.77
2023-12-04T08:13:34.862Z,100892.96
2023-12-04T08:16:03.634Z,100895.77
2023-12-04T08:18:32.220Z,100901.99
2023-12-04T08:21:02.900Z,100904.85
2023-12-04T08:23:40.356Z,100910.23
2023-12-04T08:26:10.332Z,100910.45
2023-12-04T08:28:43.233Z,100912.52
2023-12-04T08:31:12.165Z,100914.36
2023-12-04T08:33:43.285Z,100914.91
2023-12-04T08:36:17.239Z,100916.16
2023-12-04T08:38:46.113Z,100913.27
2023-12-04T08:44:01.354Z,100909.47
2023-12-04T08:46:37.587Z,100913.09
2023-12-04T08:51:58.209Z,100904.27
2023-12-04T08:54:27.354Z,100899.23
2023-12-04T08:56:56.357Z,100896.69
2023-12-04T08:59:24.794Z,100893.46
2023-12-04T09:01:53.356Z,100891.33
2023-12-04T09:04:21.943Z,100884.70
2023-12-04T09:09:30.347Z,100888.31
2023-12-04T09:12:00.746Z,100880.96
2023-12-04T09:14:29.555Z,100882.58
2023-12-04T09:16:58.102Z,100885.27
2023-12-04T09:19:26.707Z,100892.22
2023-12-04T09:22:07.611Z,100889.40
2023-12-04T09:24:40.885Z,100893.42
2023-12-04T09:27:14.913Z,100895.33
2023-12-04T09:29:47.036Z,100888.13
2023-12-04T09:32:15.808Z,100884.66
2023-12-04T09:34:44.605Z,100882.52
2023-12-04T09:37:14.768Z,100885.55
2023-12-04T09:39:43.432Z,100885.29
2023-12-04T09:42:12.366Z,100889.11
2023-12-04T09:44:41.604Z,100887.48
2023-12-04T09:47:10.036Z,100886.36
2023-12-04T09:49:42.302Z,100884.54
2023-12-04T09:52:11.552Z,100889.68
2023-12-04T09:54:43.856Z,100886.52
2023-12-04T09:57:14.506Z,100888.92
2023-12-04T09:59:43.169Z,100890.38
2023-12-04T10:02:12.238Z,100890.83
2023-12-04T10:04:41.232Z,100892.48
2023-12-04T10:07:09.701Z,100889.40
2023-12-04T10:09:39.799Z,100890.25
2023-12-04T10:12:08.834Z,100884.73
2023-12-04T10:14:37.416Z,100880.67
2023-12-04T10:17:16.673Z,100881.93
2023-12-04T10:19:45.337Z,100886.56
2023-12-04T10:22:16.001Z,100887.85
2023-12-04T10:24:46.531Z,100888.33
2023-12-04T10:27:17.121Z,100890.19
2023-12-04T10:29:50.328Z,100887.60
2023-12-04T10:32:24.615Z,100887.29
2023-12-04T10:34:53.408Z,100892.97
2023-12-04T10:37:25.405Z,100892.98
2023-12-04T10:39:55.497Z,100892.27
2023-12-04T10:42:34.442Z,100891.84
2023-12-04T10:45:03.733Z,100893.21
2023-12-04T10:47:34.097Z,100892.77
2023-12-04T10:50:03.265Z,100894.42
2023-12-04T10:52:32.998Z,100894.80
2023-12-04T10:55:04.208Z,100901.34
2023-12-04T10:57:39.072Z,100901.27
2023-12-04T11:00:09.932Z,100895.89
2023-12-04T11:02:49.316Z,100898.27
2023-12-04T11:05:21.229Z,100900.78
2023-12-04T11:08:15.043Z,100903.65
2023-12-04T11:10:59.408Z,100902.30
2023-12-04T11:13:31.185Z,100905.84
2023-12-04T11:16:03.761Z,100901.52
2023-12-04T11:18:41.487Z,100900.77
2023-12-04T11:24:11.597Z,100907.80
2023-12-04T11:26:42.526Z,100905.71
2023-12-04T11:29:11.372Z,100907.41
2023-12-04T11:31:40.547Z,100906.05
2023-12-04T11:34:11.147Z,100913.66
2023-12-04T11:36:40.058Z,100918.66
2023-12-04T11:39:12.477Z,100924.20
2023-12-04T11:41:42.513Z,100926.58
2023-12-04T11:44:15.108Z,100923.85
2023-12-04T11:47:19.118Z,100923.81
2023-12-04T11:49:48.205Z,100922.79
2023-12-04T11:52:16.810Z,100919.27
2023-12-04T11:55:11.686Z,100921.36
2023-12-04T11:57:41.677Z,100916.09
2023-12-04T12:00:38.599Z,100921.50
2023-12-04T12:03:18.300Z,100921.19
2023-12-04T12:05:54.098Z,100919.93
2023-12-04T12:08:24.479Z,100920.61
2023-12-04T12:10:54.310Z,100914.70
2023-12-04T12:13:23.175Z,100915.02
2023-12-04T12:15:53.243Z,100909.79
2023-12-04T12:18:27.053Z,100906.75
2023-12-04T12:20:58.137Z,100901.31
2023-12-04T12:23:30.868Z,100897.02
2023-12-04T12:26:05.237Z,100902.23
2023-12-04T12:28:36.070Z,100900.98
2023-12-04T12:31:05.078Z,100899.13
2023-12-04T12:33:36.415Z,100900.44
2023-12-04T12:36:06.935Z,100906.21
2023-12-04T12:38:37.218Z,100901.50
2023-12-04T12:41:10.459Z,100902.98
2023-12-04T12:43:49.446Z,100899.43
2023-12-04T12:46:18.194Z,100903.47
2023-12-04T12:48:48.919Z,100903.24
2023-12-04T12:51:17.205Z,100896.53
2023-12-04T12:53:50.975Z,100896.60
2023-12-04T12:56:23.623Z,100898.35
2023-12-04T12:58:55.950Z,100900.90
2023-12-04T13:01:29.930Z,100905.27
2023-12-04T13:03:59.141Z,100906.70
2023-12-04T13:06:29.722Z,100908.63
2023-12-04T13:09:01.698Z,100909.66
2023-12-04T13:11:35.252Z,100910.78
2023-12-04T13:14:04.086Z,100913.38
2023-12-04T13:16:33.606Z,100911.34
2023-12-04T13:19:02.838Z,100910.41
2023-12-04T13:21:33.075Z,100914.33
2023-12-04T13:24:01.637Z,100917.48
2023-12-04T13:26:30.532Z,100917.84
2023-12-04T13:29:00.717Z,100920.68
2023-12-04T13:31:29.465Z,100918.95
2023-12-04T13:33:59.260Z,100925.02
2023-12-04T13:36:34.289Z,100924.18
2023-12-04T13:39:03.486Z,100925.77
2023-12-04T13:41:54.985Z,100930.29
2023-12-04T13:44:24.147Z,100932.04
2023-12-04T13:46:53.118Z,100931.29
2023-12-04T13:49:23.311Z,100929.99
2023-12-04T13:51:53.661Z,100934.86
2023-12-04T13:54:29.191Z,100932.97
2023-12-04T13:57:00.829Z,100932.25
2023-12-04T13:59:36.197Z,100934.02
2023-12-04T14:02:12.541Z,100925.73
2023-12-04T14:04:42.055Z,100928.73
2023-12-04T14:07:15.100Z,100930.98
2023-12-04T14:09:45.613Z,100931.05
2023-12-04T14:12:15.782Z,100928.90
2023-12-04T14:14:44.620Z,100931.36
2023-12-04T14:17:13.606Z,100927.32
2023-12-04T14:19:43.169Z,100927.34
2023-12-04T14:22:11.920Z,100925.86
2023-12-04T14:24:40.647Z,100928.33
2023-12-04T14:27:10.568Z,100922.73
2023-12-04T14:29:39.280Z,100929.45
2023-12-04T14:32:09.181Z,100927.88
2023-12-04T14:34:39.398Z,100928.35
2023-12-04T14:37:09.827Z,100930.88
2023-12-04T14:39:38.701Z,100928.73
2023-12-04T14:42:09.467Z,100930.38
2023-12-04T14:44:38.442Z,100929.16
2023-12-04T14:47:13.623Z,100930.08
2023-12-04T14:49:42.393Z,100930.34
2023-12-04T14:52:13.026Z,100927.70
2023-12-04T14:55:04.320Z,100929.63
2023-12-04T14:57:41.316Z,100930.44
2023-12-04T15:00:48.951Z,100926.71
2023-12-04T15:06:18.866Z,100931.70
2023-12-04T15:09:08.494Z,100935.05
2023-12-04T15:12:08.581Z,100940.27
2023-12-04T15:14:59.261Z,100936.77
2023-12-04T15:17:47.203Z,100929.70
2023-12-04T15:20:33.471Z,100934.04
2023-12-04T15:23:02.784Z,100933.84
2023-12-04T15:25:32.052Z,100935.61
2023-12-04T15:28:09.568Z,100937.35
2023-12-04T15:30:38.460Z,100939.34
2023-12-04T15:33:10.808Z,100935.46
2023-12-04T15:35:40.426Z,100944.52
2023-12-04T15:38:13.202Z,100942.70
2023-12-04T15:40:42.122Z,100949.42
2023-12-04T15:43:10.786Z,100950.34
2023-12-04T15:45:39.766Z,100949.58
2023-12-04T15:48:09.987Z,100950.63
2023-12-04T15:50:38.814Z,100948.41
2023-12-04T15:53:09.204Z,100946.51
2023-12-04T15:55:49.689Z,100948.40
2023-12-04T15:58:19.176Z,100949.75
2023-12-04T16:00:49.057Z,100950.70
2023-12-04T16:03:18.316Z,100953.38
2023-12-04T16:05:49.543Z,100951.94
2023-12-04T16:08:34.525Z,100955.55
2023-12-04T16:11:46.522Z,100954.40
2023-12-04T16:14:16.118Z,100958.61
2023-12-04T16:16:47.253Z,100960.61
2023-12-04T16:19:17.319Z,100963.23
2023-12-04T16:21:49.865Z,100962.23
2023-12-04T16:24:22.914Z,100968.54
2023-12-04T16:27:04.250Z,100961.47
2023-12-04T16:29:35.674Z,100962.64
2023-12-04T16:32:06.459Z,100958.65
2023-12-04T16:34:35.413Z,100961.67
2023-12-04T16:37:04.583Z,100961.92
2023-12-04T16:39:33.137Z,100962.90
2023-12-04T16:42:01.972Z,100966.77
2023-12-04T16:44:37.281Z,100968.16
2023-12-04T16:47:06.363Z,100968.39
2023-12-04T16:49:34.896Z,100964.33
2023-12-04T16:52:04.018Z,100963.77
2023-12-04T16:54:32.933Z,100966.60
2023-12-04T16:57:01.771Z,100966.59
2023-12-04T16:59:32.731Z,100967.95
2023-12-04T17:02:03.160Z,100964.70
2023-12-04T17:04:32.682Z,100967.88
2023-12-04T17:07:03.955Z,100974.09
2023-12-04T17:09:33.192Z,100979.13
2023-12-04T17:12:02.752Z,100977.05
2023-12-04T17:14:33.634Z,100979.05
2023-12-04T17:17:05.577Z,100978.47
2023-12-04T17:19:37.358Z,100982.41
2023-12-04T17:22:06.454Z,100979.90
2023-12-04T17:24:35.449Z,100977.83
2023-12-04T17:27:05.951Z,100979.33
2023-12-04T17:29:36.077Z,100987.41
2023-12-04T17:32:05.371Z,100993.39
2023-12-04T17:34:34.495Z,100996.84
2023-12-04T17:37:04.285Z,100989.83
2023-12-04T17:39:34.228Z,100987.92
2023-12-04T17:42:03.603Z,100993.70
2023-12-04T17:44:33.369Z,100994.66
2023-12-04T17:47:03.570Z,100995.45
2023-12-04T17:49:37.370Z,100996.02
2023-12-04T17:52:07.106Z,100997.52
2023-12-04T17:54:36.554Z,100997.69
2023-12-04T17:57:06.884Z,100999.30
2023-12-04T17:59:36.802Z,101000.23
2023-12-04T18:02:13.573Z,101003.05
2023-12-04T18:04:45.386Z,101005.12
2023-12-04T18:07:15.305Z,101003.08
2023-12-04T18:09:44.990Z,101005.91
2023-12-04T18:12:13.974Z,101006.45
2023-12-04T18:14:47.591Z,101012.73
2023-12-04T18:17:16.513Z,101014.63
2023-12-04T18:19:48.374Z,101012.49
2023-12-04T18:22:17.838Z,101015.42
2023-12-04T18:24:46.785Z,101013.35
2023-12-04T18:27:18.170Z,101015.54
2023-12-04T18:29:48.768Z,101020.55
2023-12-04T18:32:19.727Z,101021.50
2023-12-04T18:34:59.308Z,101022.84
2023-12-04T18:37:48.437Z,101022.23
2023-12-04T18:40:20.238Z,101022.17
2023-12-04T18:42:50.450Z,101023.02
2023-12-04T18:45:22.400Z,101025.92
2023-12-04T18:47:56.631Z,101028.14
2023-12-04T18:50:25.995Z,101030.00
2023-12-04T18:52:57.038Z,101035.68
2023-12-04T18:55:27.153Z,101038.98
2023-12-04T18:57:56.145Z,101038.35
2023-12-04T19:00:26.399Z,101043.58
2023-12-04T19:02:55.131Z,101043.15
2023-12-04T19:05:32.557Z,101047.58
2023-12-04T19:08:03.920Z,101049.21
2023-12-04T19:10:34.427Z,101052.73
2023-12-04T19:13:03.952Z,101058.96
2023-12-04T19:15:34.252Z,101061.93
2023-12-04T19:18:03.458Z,101062.64
2023-12-04T19:20:32.654Z,101060.62
2023-12-04T19:23:05.150Z,101058.27
2023-12-04T19:25:49.172Z,101059.08
2023-12-04T19:28:20.623Z,101061.96
2023-12-04T19:30:50.406Z,101065.90
2023-12-04T19:33:25.650Z,101068.11
2023-12-04T19:35:58.339Z,101063.44
2023-12-04T19:38:27.263Z,101063.24
2023-12-04T19:40:56.360Z,101067.63
2023-12-04T19:43:25.420Z,101066.89
2023-12-04T19:45:54.825Z,101068.55
2023-12-04T19:48:26.637Z,101066.21
2023-12-04T19:50:57.728Z,101062.40
2023-12-04T19:53:26.428Z,101052.31
2023-12-04T19:55:56.165Z,101052.96
2023-12-04T19:58:24.816Z,101058.20
2023-12-04T20:00:53.610Z,101058.42
2023-12-04T20:03:23.195Z,101061.84
2023-12-04T20:05:52.221Z,101059.42
2023-12-04T20:08:21.217Z,101058.15
2023-12-04T20:10:49.976Z,101061.70
2023-12-04T20:13:19.986Z,101063.46
2023-12-04T20:15:48.929Z,101063.41
2023-12-04T20:18:19.544Z,101064.19
2023-12-04T20:20:51.279Z,101066.02
2023-12-04T20:23:19.977Z,101070.67
2023-12-04T20:25:48.960Z,101070.95
2023-12-04T20:28:22.464Z,101074.62
2023-12-04T20:30:52.393Z,101071.64
2023-12-04T20:33:22.721Z,101074.91
2023-12-04T20:35:51.940Z,101070.45
2023-12-04T20:38:21.497Z,101067.30
2023-12-04T20:40:50.633Z,101071.41
2023-12-04T20:43:19.639Z,101071.25
2023-12-04T20:45:49.523Z,101065.81
2023-12-04T20:48:19.188Z,101066.43
2023-12-04T20:50:48.331Z,101063.20
2023-12-04T20:53:17.518Z,101064.70
2023-12-04T20:55:47.920Z,101067.58
2023-12-04T20:58:18.935Z,101066.53
2023-12-04T21:00:48.210Z,101064.58
2023-12-04T21:03:17.393Z,101062.73
2023-12-04T21:05:48.041Z,101060.75
2023-12-04T21:08:18.372Z,101065.96
2023-12-04T21:10:48.433Z,101067.59
2023-12-04T21:13:17.294Z,101065.79
2023-12-04T21:15:48.597Z,101060.94
2023-12-04T21:18:17.899Z,101061.54
2023-12-04T21:20:47.795Z,101059.60
2023-12-04T21:23:16.998Z,101057.88
2023-12-04T21:25:46.495Z,101056.29
2023-12-04T21:28:18.528Z,101055.08
2023-12-04T21:30:47.361Z,101058.48
2023-12-04T21:33:19.280Z,101053.42
2023-12-04T21:35:47.909Z,101055.96
2023-12-04T21:38:16.729Z,101057.44
2023-12-04T21:40:46.808Z,101059.55
2023-12-04T21:43:15.053Z,101060.38
2023-12-04T21:45:44.627Z,101059.44
2023-12-04T21:48:14.664Z,101057.10
2023-12-04T21:50:45.537Z,101050.48
2023-12-04T21:53:15.447Z,101055.20
2023-12-04T21:55:44.238Z,101061.35
2023-12-04T21:58:13.548Z,101062.73
2023-12-04T22:01:02.615Z,101062.80
2023-12-04T22:03:36.007Z,101063.39
2023-12-04T22:06:08.420Z,101063.73
2023-12-04T22:08:37.206Z,101060.52
2023-12-04T22:11:07.013Z,101055.30
2023-12-04T22:21:20.385Z,101048.31
2023-12-04T22:23:49.268Z,101052.27
2023-12-04T22:26:17.848Z,101049.42
2023-12-04T22:28:47.625Z,101052.21
2023-12-04T22:31:19.682Z,101049.60
2023-12-04T22:33:51.072Z,101050.95
2023-12-04T22:36:19.878Z,101050.21
2023-12-04T22:38:49.965Z,101049.20
2023-12-04T22:41:18.759Z,101051.91
2023-12-04T22:43:48.662Z,101058.83
2023-12-04T22:46:22.263Z,101054.14
2023-12-04T22:48:51.930Z,101051.13
2023-12-04T22:51:21.796Z,101053.39
2023-12-04T22:53:50.812Z,101053.45
2023-12-04T22:56:19.719Z,101053.90
2023-12-04T22:58:48.369Z,101055.36
2023-12-04T23:01:16.846Z,101051.91
2023-12-04T23:03:46.711Z,101058.19
2023-12-04T23:06:18.558Z,101055.09
2023-12-04T23:08:47.203Z,101056.84
2023-12-04T23:11:18.763Z,101061.39
2023-12-04T23:13:47.255Z,101061.86
2023-12-04T23:16:16.229Z,101070.76
2023-12-04T23:18:44.733Z,101069.25
2023-12-04T23:21:13.136Z,101068.83
2023-12-04T23:23:41.670Z,101070.69
2023-12-04T23:26:11.661Z,101068.79
2023-12-04T23:28:40.380Z,101065.67
2023-12-04T23:31:09.164Z,101064.92
2023-12-04T23:33:39.828Z,101066.47
2023-12-04T23:36:11.650Z,101066.87
2023-12-04T23:38:41.289Z,101065.77
2023-12-04T23:41:10.268Z,101066.75
2023-12-04T23:43:38.829Z,101067.33
2023-12-04T23:46:08.181Z,101070.93
2023-12-04T23:48:40.138Z,101077.54
2023-12-04T23:51:09.539Z,101077.45
2023-12-04T23:53:39.347Z,101086.48
2023-12-04T23:56:09.705Z,101083.51
2023-12-04T23:58:40.978Z,101089.91
